sensor_id;sensor_type;location;lat;lon;timestamp;temperature;humidity
9977;DHT22;5029;47.378;11.776;2022-09-30T00:00:43;6.80;99.90
9977;DHT22;5029;47.378;11.776;2022-09-30T00:05:46;6.80;99.90
9977;DHT22;5029;47.378;11.776;2022-09-30T00:10:58;6.80;99.90
9977;DHT22;5029;47.378;11.776;2022-09-30T00:16:04;6.70;99.90
9977;DHT22;5029;47.378;11.776;2022-09-30T00:21:08;6.60;99.90
9977;DHT22;5029;47.378;11.776;2022-09-30T00:26:13;6.50;99.90
9977;DHT22;5029;47.378;11.776;2022-09-30T00:31:19;6.30;99.90
9977;DHT22;5029;47.378;11.776;2022-09-30T00:36:23;6.30;99.90
9977;DHT22;5029;47.378;11.776;2022-09-30T00:41:26;6.10;99.90
9977;DHT22;5029;47.378;11.776;2022-09-30T00:46:35;6.20;99.90
9977;DHT22;5029;47.378;11.776;2022-09-30T00:51:49;6.20;99.90
9977;DHT22;5029;47.378;11.776;2022-09-30T00:56:59;6.20;99.90
9977;DHT22;5029;47.378;11.776;2022-09-30T01:02:06;6.30;99.90
9977;DHT22;5029;47.378;11.776;2022-09-30T01:07:11;6.10;99.90
9977;DHT22;5029;47.378;11.776;2022-09-30T01:12:19;6.10;99.90
9977;DHT22;5029;47.378;11.776;2022-09-30T01:17:34;6.00;99.90
9977;DHT22;5029;47.378;11.776;2022-09-30T01:22:43;6.20;99.90
9977;DHT22;5029;47.378;11.776;2022-09-30T01:33:39;6.00;99.90
9977;DHT22;5029;47.378;11.776;2022-09-30T01:38:50;6.00;99.90
9977;DHT22;5029;47.378;11.776;2022-09-30T01:44:00;6.10;99.90
9977;DHT22;5029;47.378;11.776;2022-09-30T01:49:12;6.10;99.90
9977;DHT22;5029;47.378;11.776;2022-09-30T01:54:24;5.90;99.90
9977;DHT22;5029;47.378;11.776;2022-09-30T01:59:32;6.10;99.90
9977;DHT22;5029;47.378;11.776;2022-09-30T02:04:43;5.90;99.90
9977;DHT22;5029;47.378;11.776;2022-09-30T02:09:50;5.80;99.90
9977;DHT22;5029;47.378;11.776;2022-09-30T02:15:00;5.80;99.90
9977;DHT22;5029;47.378;11.776;2022-09-30T02:20:09;6.00;99.90
9977;DHT22;5029;47.378;11.776;2022-09-30T02:25:17;6.00;99.90
9977;DHT22;5029;47.378;11.776;2022-09-30T02:30:21;6.00;99.90
9977;DHT22;5029;47.378;11.776;2022-09-30T02:35:30;6.10;99.90
9977;DHT22;5029;47.378;11.776;2022-09-30T02:40:40;6.20;99.90
9977;DHT22;5029;47.378;11.776;2022-09-30T02:45:50;6.40;99.90
9977;DHT22;5029;47.378;11.776;2022-09-30T02:51:02;6.20;99.90
9977;DHT22;5029;47.378;11.776;2022-09-30T02:56:16;6.30;99.90
9977;DHT22;5029;47.378;11.776;2022-09-30T03:01:23;6.40;99.90
9977;DHT22;5029;47.378;11.776;2022-09-30T03:06:28;6.30;99.90
9977;DHT22;5029;47.378;11.776;2022-09-30T03:11:32;6.30;99.90
9977;DHT22;5029;47.378;11.776;2022-09-30T03:17:00;6.30;99.90
9977;DHT22;5029;47.378;11.776;2022-09-30T03:22:22;6.10;99.90
9977;DHT22;5029;47.378;11.776;2022-09-30T03:27:35;6.10;99.90
9977;DHT22;5029;47.378;11.776;2022-09-30T03:32:57;6.20;99.90
9977;DHT22;5029;47.378;11.776;2022-09-30T03:38:11;6.00;99.90
9977;DHT22;5029;47.378;11.776;2022-09-30T03:43:21;5.90;99.90
9977;DHT22;5029;47.378;11.776;2022-09-30T03:48:28;5.90;99.90
9977;DHT22;5029;47.378;11.776;2022-09-30T03:53:38;6.10;99.90
9977;DHT22;5029;47.378;11.776;2022-09-30T03:58:43;6.20;99.90
9977;DHT22;5029;47.378;11.776;2022-09-30T04:03:47;6.20;99.90
9977;DHT22;5029;47.378;11.776;2022-09-30T04:08:54;6.10;99.90
9977;DHT22;5029;47.378;11.776;2022-09-30T04:13:58;6.10;99.90
9977;DHT22;5029;47.378;11.776;2022-09-30T04:19:02;6.00;99.90
9977;DHT22;5029;47.378;11.776;2022-09-30T04:24:10;6.10;99.90
9977;DHT22;5029;47.378;11.776;2022-09-30T04:29:13;6.20;99.90
9977;DHT22;5029;47.378;11.776;2022-09-30T04:34:17;6.50;99.90
9977;DHT22;5029;47.378;11.776;2022-09-30T04:39:22;6.60;99.90
9977;DHT22;5029;47.378;11.776;2022-09-30T04:44:26;6.50;99.90
9977;DHT22;5029;47.378;11.776;2022-09-30T04:49:29;6.40;99.90
9977;DHT22;5029;47.378;11.776;2022-09-30T04:54:35;6.30;99.90
9977;DHT22;5029;47.378;11.776;2022-09-30T04:59:40;6.30;99.90
9977;DHT22;5029;47.378;11.776;2022-09-30T05:04:45;6.50;99.90
9977;DHT22;5029;47.378;11.776;2022-09-30T05:09:49;6.40;99.90
9977;DHT22;5029;47.378;11.776;2022-09-30T05:14:53;6.30;99.90
9977;DHT22;5029;47.378;11.776;2022-09-30T05:19:57;6.20;99.90
9977;DHT22;5029;47.378;11.776;2022-09-30T05:25:02;6.20;99.90
9977;DHT22;5029;47.378;11.776;2022-09-30T05:30:07;6.30;99.90
9977;DHT22;5029;47.378;11.776;2022-09-30T05:35:10;6.40;99.90
9977;DHT22;5029;47.378;11.776;2022-09-30T05:40:15;6.30;99.90
9977;DHT22;5029;47.378;11.776;2022-09-30T05:45:19;6.20;99.90
9977;DHT22;5029;47.378;11.776;2022-09-30T05:50:23;6.30;99.90
9977;DHT22;5029;47.378;11.776;2022-09-30T05:55:29;6.20;99.90
9977;DHT22;5029;47.378;11.776;2022-09-30T06:00:39;6.30;99.90
9977;DHT22;5029;47.378;11.776;2022-09-30T06:05:43;6.40;99.90
9977;DHT22;5029;47.378;11.776;2022-09-30T06:10:48;6.40;99.90
9977;DHT22;5029;47.378;11.776;2022-09-30T06:15:56;6.40;99.90
9977;DHT22;5029;47.378;11.776;2022-09-30T06:21:02;6.40;99.90
9977;DHT22;5029;47.378;11.776;2022-09-30T06:26:08;6.40;99.90
9977;DHT22;5029;47.378;11.776;2022-09-30T06:31:14;6.40;99.90
9977;DHT22;5029;47.378;11.776;2022-09-30T06:36:17;6.40;99.90
9977;DHT22;5029;47.378;11.776;2022-09-30T06:41:22;6.60;99.90
9977;DHT22;5029;47.378;11.776;2022-09-30T06:46:29;6.60;99.90
9977;DHT22;5029;47.378;11.776;2022-09-30T06:51:33;6.60;99.90
9977;DHT22;5029;47.378;11.776;2022-09-30T06:56:38;6.60;99.90
9977;DHT22;5029;47.378;11.776;2022-09-30T07:01:42;6.70;99.90
9977;DHT22;5029;47.378;11.776;2022-09-30T07:06:46;6.80;99.90
9977;DHT22;5029;47.378;11.776;2022-09-30T07:11:51;6.90;99.90
9977;DHT22;5029;47.378;11.776;2022-09-30T07:16:54;6.90;99.90
9977;DHT22;5029;47.378;11.776;2022-09-30T07:21:58;6.90;99.90
9977;DHT22;5029;47.378;11.776;2022-09-30T07:27:24;6.90;99.90
9977;DHT22;5029;47.378;11.776;2022-09-30T07:32:28;7.10;99.90
9977;DHT22;5029;47.378;11.776;2022-09-30T07:37:31;7.10;99.90
9977;DHT22;5029;47.378;11.776;2022-09-30T07:42:39;7.00;99.90
9977;DHT22;5029;47.378;11.776;2022-09-30T07:47:47;7.10;99.90
9977;DHT22;5029;47.378;11.776;2022-09-30T07:52:54;7.20;99.90
9977;DHT22;5029;47.378;11.776;2022-09-30T07:57:59;7.20;99.90
9977;DHT22;5029;47.378;11.776;2022-09-30T08:03:03;7.40;99.90
9977;DHT22;5029;47.378;11.776;2022-09-30T08:08:07;7.70;99.90
9977;DHT22;5029;47.378;11.776;2022-09-30T08:13:12;7.90;99.90
9977;DHT22;5029;47.378;11.776;2022-09-30T08:18:17;7.90;99.90
9977;DHT22;5029;47.378;11.776;2022-09-30T08:23:21;8.20;99.90
9977;DHT22;5029;47.378;11.776;2022-09-30T08:28:26;8.20;99.90
9977;DHT22;5029;47.378;11.776;2022-09-30T08:33:32;8.30;99.90
9977;DHT22;5029;47.378;11.776;2022-09-30T08:38:37;8.60;99.90
9977;DHT22;5029;47.378;11.776;2022-09-30T08:43:52;8.90;99.90
9977;DHT22;5029;47.378;11.776;2022-09-30T08:49:05;9.40;99.90
9977;DHT22;5029;47.378;11.776;2022-09-30T08:54:14;9.60;99.90
9977;DHT22;5029;47.378;11.776;2022-09-30T08:59:27;9.90;99.90
9977;DHT22;5029;47.378;11.776;2022-09-30T09:04:31;9.80;99.90
9977;DHT22;5029;47.378;11.776;2022-09-30T09:09:45;10.00;99.90
9977;DHT22;5029;47.378;11.776;2022-09-30T09:15:17;10.40;99.90
9977;DHT22;5029;47.378;11.776;2022-09-30T09:20:28;10.30;99.90
9977;DHT22;5029;47.378;11.776;2022-09-30T09:25:34;10.20;99.90
9977;DHT22;5029;47.378;11.776;2022-09-30T09:30:42;10.50;99.90
9977;DHT22;5029;47.378;11.776;2022-09-30T09:35:56;10.50;99.90
9977;DHT22;5029;47.378;11.776;2022-09-30T09:41:10;10.10;99.90
9977;DHT22;5029;47.378;11.776;2022-09-30T09:46:20;10.50;99.90
9977;DHT22;5029;47.378;11.776;2022-09-30T09:51:32;10.90;99.90
9977;DHT22;5029;47.378;11.776;2022-09-30T09:56:38;10.90;99.90
9977;DHT22;5029;47.378;11.776;2022-09-30T10:01:45;11.50;99.90
9977;DHT22;5029;47.378;11.776;2022-09-30T10:06:52;11.10;99.90
9977;DHT22;5029;47.378;11.776;2022-09-30T10:12:24;11.20;99.90
9977;DHT22;5029;47.378;11.776;2022-09-30T10:17:32;11.10;99.90
9977;DHT22;5029;47.378;11.776;2022-09-30T10:22:36;11.20;99.90
9977;DHT22;5029;47.378;11.776;2022-09-30T10:27:47;10.80;99.90
9977;DHT22;5029;47.378;11.776;2022-09-30T10:32:52;11.50;99.90
9977;DHT22;5029;47.378;11.776;2022-09-30T10:37:58;11.80;99.90
9977;DHT22;5029;47.378;11.776;2022-09-30T10:43:02;11.20;99.90
9977;DHT22;5029;47.378;11.776;2022-09-30T10:48:16;11.50;99.90
9977;DHT22;5029;47.378;11.776;2022-09-30T10:53:23;11.40;99.90
9977;DHT22;5029;47.378;11.776;2022-09-30T10:58:42;11.60;99.90
9977;DHT22;5029;47.378;11.776;2022-09-30T11:03:54;12.10;99.90
9977;DHT22;5029;47.378;11.776;2022-09-30T11:09:03;11.90;99.90
9977;DHT22;5029;47.378;11.776;2022-09-30T11:14:28;12.10;99.90
9977;DHT22;5029;47.378;11.776;2022-09-30T11:19:38;12.20;99.90
9977;DHT22;5029;47.378;11.776;2022-09-30T11:24:45;12.30;99.90
9977;DHT22;5029;47.378;11.776;2022-09-30T11:30:00;12.60;99.90
9977;DHT22;5029;47.378;11.776;2022-09-30T11:35:21;12.70;99.90
9977;DHT22;5029;47.378;11.776;2022-09-30T12:17:59;13.20;99.90
9977;DHT22;5029;47.378;11.776;2022-09-30T12:56:31;12.20;99.90
9977;DHT22;5029;47.378;11.776;2022-09-30T13:01:41;12.20;99.90
9977;DHT22;5029;47.378;11.776;2022-09-30T13:07:11;12.60;99.90
9977;DHT22;5029;47.378;11.776;2022-09-30T13:12:26;12.50;99.90
9977;DHT22;5029;47.378;11.776;2022-09-30T13:17:31;12.50;99.90
9977;DHT22;5029;47.378;11.776;2022-09-30T13:22:42;13.00;99.90
9977;DHT22;5029;47.378;11.776;2022-09-30T13:49:50;13.00;99.90
9977;DHT22;5029;47.378;11.776;2022-09-30T13:55:06;13.00;99.90
9977;DHT22;5029;47.378;11.776;2022-09-30T14:00:17;13.10;99.90
9977;DHT22;5029;47.378;11.776;2022-09-30T14:22:05;13.10;99.90
9977;DHT22;5029;47.378;11.776;2022-09-30T14:33:10;13.10;99.90
9977;DHT22;5029;47.378;11.776;2022-09-30T14:38:24;13.20;99.90
9977;DHT22;5029;47.378;11.776;2022-09-30T14:43:37;12.70;99.90
9977;DHT22;5029;47.378;11.776;2022-09-30T14:48:47;12.30;99.90
9977;DHT22;5029;47.378;11.776;2022-09-30T14:59:19;12.40;99.90
9977;DHT22;5029;47.378;11.776;2022-09-30T15:10:02;12.40;99.90
9977;DHT22;5029;47.378;11.776;2022-09-30T15:25:49;12.80;99.90
9977;DHT22;5029;47.378;11.776;2022-09-30T15:47:07;12.50;99.90
9977;DHT22;5029;47.378;11.776;2022-09-30T16:29:47;11.40;99.90
9977;DHT22;5029;47.378;11.776;2022-09-30T16:34:52;10.50;99.90
9977;DHT22;5029;47.378;11.776;2022-09-30T16:40:08;10.50;99.90
9977;DHT22;5029;47.378;11.776;2022-09-30T16:45:14;11.00;99.90
9977;DHT22;5029;47.378;11.776;2022-09-30T16:50:22;11.10;99.90
9977;DHT22;5029;47.378;11.776;2022-09-30T16:55:28;10.60;99.90
9977;DHT22;5029;47.378;11.776;2022-09-30T17:00:33;11.00;99.90
9977;DHT22;5029;47.378;11.776;2022-09-30T17:05:38;10.60;99.90
9977;DHT22;5029;47.378;11.776;2022-09-30T17:10:44;10.60;99.90
9977;DHT22;5029;47.378;11.776;2022-09-30T17:15:51;10.80;99.90
9977;DHT22;5029;47.378;11.776;2022-09-30T17:20:55;9.90;99.90
9977;DHT22;5029;47.378;11.776;2022-09-30T17:25:59;9.50;99.90
9977;DHT22;5029;47.378;11.776;2022-09-30T17:31:08;9.20;99.90
9977;DHT22;5029;47.378;11.776;2022-09-30T17:36:13;9.10;99.90
9977;DHT22;5029;47.378;11.776;2022-09-30T17:41:16;9.20;99.90
9977;DHT22;5029;47.378;11.776;2022-09-30T17:46:43;9.10;99.90
9977;DHT22;5029;47.378;11.776;2022-09-30T17:51:48;9.20;99.90
9977;DHT22;5029;47.378;11.776;2022-09-30T17:56:51;8.90;99.90
9977;DHT22;5029;47.378;11.776;2022-09-30T18:01:56;8.90;99.90
9977;DHT22;5029;47.378;11.776;2022-09-30T18:07:00;9.00;99.90
9977;DHT22;5029;47.378;11.776;2022-09-30T18:12:05;8.80;99.90
9977;DHT22;5029;47.378;11.776;2022-09-30T18:17:12;8.90;99.90
9977;DHT22;5029;47.378;11.776;2022-09-30T18:22:16;8.80;99.90
9977;DHT22;5029;47.378;11.776;2022-09-30T18:27:21;9.00;99.90
9977;DHT22;5029;47.378;11.776;2022-09-30T18:32:26;8.90;99.90
9977;DHT22;5029;47.378;11.776;2022-09-30T18:37:31;8.90;99.90
9977;DHT22;5029;47.378;11.776;2022-09-30T18:42:37;8.90;99.90
9977;DHT22;5029;47.378;11.776;2022-09-30T18:47:43;8.90;99.90
9977;DHT22;5029;47.378;11.776;2022-09-30T18:52:47;9.00;99.90
9977;DHT22;5029;47.378;11.776;2022-09-30T18:57:53;9.10;99.90
9977;DHT22;5029;47.378;11.776;2022-09-30T19:02:58;8.50;99.90
9977;DHT22;5029;47.378;11.776;2022-09-30T19:08:02;8.30;99.90
9977;DHT22;5029;47.378;11.776;2022-09-30T19:13:06;8.30;99.90
9977;DHT22;5029;47.378;11.776;2022-09-30T19:18:11;8.30;99.90
9977;DHT22;5029;47.378;11.776;2022-09-30T19:23:15;8.30;99.90
9977;DHT22;5029;47.378;11.776;2022-09-30T19:28:21;8.20;99.90
9977;DHT22;5029;47.378;11.776;2022-09-30T19:33:26;8.20;99.90
9977;DHT22;5029;47.378;11.776;2022-09-30T19:38:30;8.30;99.90
9977;DHT22;5029;47.378;11.776;2022-09-30T19:43:38;8.10;99.90
9977;DHT22;5029;47.378;11.776;2022-09-30T19:48:44;8.00;99.90
9977;DHT22;5029;47.378;11.776;2022-09-30T19:53:48;8.20;99.90
9977;DHT22;5029;47.378;11.776;2022-09-30T19:59:08;8.30;99.90
9977;DHT22;5029;47.378;11.776;2022-09-30T20:04:15;8.40;99.90
9977;DHT22;5029;47.378;11.776;2022-09-30T20:09:21;8.00;99.90
9977;DHT22;5029;47.378;11.776;2022-09-30T20:14:26;8.00;99.90
9977;DHT22;5029;47.378;11.776;2022-09-30T20:19:48;7.90;99.90
9977;DHT22;5029;47.378;11.776;2022-09-30T20:25:16;7.70;99.90
9977;DHT22;5029;47.378;11.776;2022-09-30T20:30:20;8.00;99.90
9977;DHT22;5029;47.378;11.776;2022-09-30T20:35:25;8.10;99.90
9977;DHT22;5029;47.378;11.776;2022-09-30T20:40:29;8.30;99.90
9977;DHT22;5029;47.378;11.776;2022-09-30T20:45:33;8.40;99.90
9977;DHT22;5029;47.378;11.776;2022-09-30T20:50:40;8.50;99.90
9977;DHT22;5029;47.378;11.776;2022-09-30T20:55:46;8.70;99.90
9977;DHT22;5029;47.378;11.776;2022-09-30T21:00:49;8.60;99.90
9977;DHT22;5029;47.378;11.776;2022-09-30T21:05:55;8.40;99.90
9977;DHT22;5029;47.378;11.776;2022-09-30T21:11:01;8.10;99.90
9977;DHT22;5029;47.378;11.776;2022-09-30T21:16:05;8.10;99.90
9977;DHT22;5029;47.378;11.776;2022-09-30T21:21:13;8.20;99.90
9977;DHT22;5029;47.378;11.776;2022-09-30T21:26:16;8.20;99.90
9977;DHT22;5029;47.378;11.776;2022-09-30T21:31:24;8.10;99.90
9977;DHT22;5029;47.378;11.776;2022-09-30T21:36:30;8.30;99.90
9977;DHT22;5029;47.378;11.776;2022-09-30T21:41:33;8.60;99.90
9977;DHT22;5029;47.378;11.776;2022-09-30T21:46:37;8.60;99.90
9977;DHT22;5029;47.378;11.776;2022-09-30T21:51:50;8.70;99.90
9977;DHT22;5029;47.378;11.776;2022-09-30T21:56:54;8.50;99.90
9977;DHT22;5029;47.378;11.776;2022-09-30T22:01:57;8.50;99.90
9977;DHT22;5029;47.378;11.776;2022-09-30T22:07:02;8.50;99.90
9977;DHT22;5029;47.378;11.776;2022-09-30T22:12:06;8.60;99.90
9977;DHT22;5029;47.378;11.776;2022-09-30T22:17:10;8.50;99.90
9977;DHT22;5029;47.378;11.776;2022-09-30T22:22:15;8.40;99.90
9977;DHT22;5029;47.378;11.776;2022-09-30T22:27:18;8.40;99.90
9977;DHT22;5029;47.378;11.776;2022-09-30T22:32:22;8.40;99.90
9977;DHT22;5029;47.378;11.776;2022-09-30T22:37:42;8.40;99.90
9977;DHT22;5029;47.378;11.776;2022-09-30T22:43:02;8.50;99.90
9977;DHT22;5029;47.378;11.776;2022-09-30T22:48:06;8.60;99.90
9977;DHT22;5029;47.378;11.776;2022-09-30T22:53:11;8.40;99.90
9977;DHT22;5029;47.378;11.776;2022-09-30T22:58:14;8.50;99.90
9977;DHT22;5029;47.378;11.776;2022-09-30T23:03:18;8.30;99.90
9977;DHT22;5029;47.378;11.776;2022-09-30T23:08:23;8.30;99.90
9977;DHT22;5029;47.378;11.776;2022-09-30T23:13:28;8.20;99.90
9977;DHT22;5029;47.378;11.776;2022-09-30T23:18:35;8.20;99.90
9977;DHT22;5029;47.378;11.776;2022-09-30T23:23:41;8.20;99.90
9977;DHT22;5029;47.378;11.776;2022-09-30T23:28:45;8.30;99.90
9977;DHT22;5029;47.378;11.776;2022-09-30T23:33:51;8.40;99.90
9977;DHT22;5029;47.378;11.776;2022-09-30T23:38:59;8.40;99.90
9977;DHT22;5029;47.378;11.776;2022-09-30T23:44:03;8.50;99.90
9977;DHT22;5029;47.378;11.776;2022-09-30T23:49:06;8.20;99.90
9977;DHT22;5029;47.378;11.776;2022-09-30T23:54:11;8.10;99.90
9977;DHT22;5029;47.378;11.776;2022-09-30T23:59:15;8.20;99.90
